Time;durP1;ratioP1;P1;durP2;ratioP2;P2;SDS_P1;SDS_P2;PMS_P1;PMS_P2;Temp;Humidity;BMP_temperature;BMP_pressure;BME280_temperature;BME280_humidity;BME280_pressure;Samples;Min_cycle;Max_cycle;Signal;HPM_P1;HPM_P2
2021/06/04 00:01:23;;;;;;;7.10;5.30;;;;;;;18.91;76.16;96662.22;4999895;28;20928;-91
2021/06/04 00:03:50;;;;;;;6.63;4.50;;;;;;;18.89;76.09;96671.00;5000582;28;20592;-91
2021/06/04 00:06:16;;;;;;;5.63;5.00;;;;;;;18.83;75.94;96673.34;5009483;28;20445;-90
2021/06/04 00:08:42;;;;;;;6.40;4.60;;;;;;;18.79;76.30;96666.94;5012570;28;20505;-91
2021/06/04 00:11:12;;;;;;;5.63;4.40;;;;;;;18.77;76.57;96664.75;5015552;28;20488;-90
2021/06/04 00:13:41;;;;;;;5.80;4.80;;;;;;;18.79;76.20;96664.19;5018381;28;20539;-90
2021/06/04 00:16:11;;;;;;;7.10;5.57;;;;;;;18.87;76.52;96668.13;5019789;28;20428;-90
2021/06/04 00:18:41;;;;;;;6.23;4.70;;;;;;;19.08;75.34;96662.63;5019825;28;20468;-91
2021/06/04 00:21:11;;;;;;;5.13;4.63;;;;;;;18.92;75.67;96666.38;5019708;28;20435;-90
2021/06/04 00:23:39;;;;;;;5.30;4.43;;;;;;;18.79;76.70;96658.72;5018995;28;20476;-92
2021/06/04 00:26:08;;;;;;;5.40;4.90;;;;;;;18.78;76.76;96660.75;5012158;28;20456;-91
2021/06/04 00:28:34;;;;;;;7.77;5.00;;;;;;;18.72;77.25;96657.63;5000882;28;20915;-90
2021/06/04 00:31:01;;;;;;;4.33;3.93;;;;;;;18.70;77.04;96657.50;5000304;28;20544;-91
2021/06/04 00:33:27;;;;;;;5.13;4.63;;;;;;;18.69;77.04;96656.06;5000151;28;20958;-91
2021/06/04 00:35:55;;;;;;;6.03;4.50;;;;;;;18.73;76.49;96656.31;5002200;28;20449;-91
2021/06/04 00:38:22;;;;;;;4.23;3.83;;;;;;;18.77;76.14;96658.56;5000430;28;20536;-91
2021/06/04 00:40:51;;;;;;;6.30;5.20;;;;;;;18.74;76.53;96660.47;4999085;28;20441;-91
2021/06/04 00:43:17;;;;;;;10.77;5.07;;;;;;;18.69;76.46;96648.59;4999491;28;20854;-91
2021/06/04 00:45:46;;;;;;;7.00;5.00;;;;;;;18.61;77.45;96652.81;4998247;28;20504;-91
2021/06/04 00:48:13;;;;;;;5.67;4.20;;;;;;;18.55;77.31;96647.66;4999136;28;20434;-91
2021/06/04 00:50:44;;;;;;;5.30;4.30;;;;;;;18.49;77.38;96650.03;4998959;28;20483;-91
2021/06/04 00:53:13;;;;;;;4.57;4.13;;;;;;;18.43;78.72;96646.16;4998900;28;20480;-92
2021/06/04 00:55:39;;;;;;;4.97;4.50;;;;;;;18.36;79.20;96647.06;4997896;28;20588;-91
2021/06/04 00:58:07;;;;;;;6.10;4.87;;;;;;;18.29;79.44;96645.25;4998278;28;20437;-91
2021/06/04 01:00:38;;;;;;;6.83;5.20;;;;;;;18.19;80.58;96648.75;4998193;28;20473;-91
2021/06/04 01:03:05;;;;;;;7.90;5.40;;;;;;;18.14;80.31;96652.53;4999064;28;20449;-93
2021/06/04 01:05:33;;;;;;;5.93;4.70;;;;;;;18.16;79.97;96649.22;5013942;28;20480;-90
2021/06/04 01:08:33;;;;;;;6.73;4.93;;;;;;;18.13;81.11;96655.84;5019400;28;20453;-91
2021/06/04 01:11:12;;;;;;;8.03;4.60;;;;;;;18.09;81.51;96659.03;5019369;28;20440;-92
2021/06/04 01:13:51;;;;;;;5.97;4.37;;;;;;;18.09;81.34;96647.38;5015837;28;20417;-92
2021/06/04 01:16:23;;;;;;;4.60;4.17;;;;;;;18.05;81.42;96645.09;4999752;28;20437;-92
2021/06/04 01:19:01;;;;;;;5.33;4.33;;;;;;;18.05;81.49;96647.09;5001052;28;20513;-92
2021/06/04 01:21:36;;;;;;;4.77;4.00;;;;;;;18.09;81.21;96648.09;4999606;28;20476;-92
2021/06/04 01:24:13;;;;;;;5.13;3.93;;;;;;;18.12;80.94;96646.94;5000033;28;20539;-93
2021/06/04 01:26:44;;;;;;;6.67;4.30;;;;;;;18.12;81.29;96655.13;5000374;28;21041;-93
2021/06/04 01:29:14;;;;;;;7.37;4.50;;;;;;;18.06;81.45;96656.75;5003042;28;20449;-92
2021/06/04 01:31:45;;;;;;;5.10;4.00;;;;;;;17.99;82.59;96655.63;5018781;28;20425;-92
2021/06/04 01:34:15;;;;;;;4.77;4.37;;;;;;;17.92;83.10;96653.78;4999212;28;20524;-92
2021/06/04 01:36:46;;;;;;;8.03;4.13;;;;;;;17.89;82.86;96660.41;4998008;28;20452;-93
2021/06/04 01:39:18;;;;;;;6.40;4.37;;;;;;;17.93;82.98;96662.69;4998796;28;20524;-92
2021/06/04 01:41:49;;;;;;;5.10;4.60;;;;;;;17.95;82.84;96662.84;4998025;28;20500;-92
2021/06/04 01:44:19;;;;;;;5.03;4.53;;;;;;;17.98;82.59;96662.38;4998827;28;20465;-93
2021/06/04 01:46:50;;;;;;;5.10;4.60;;;;;;;17.98;82.46;96667.84;4998231;28;20453;-91
2021/06/04 01:49:20;;;;;;;5.00;4.50;;;;;;;17.98;82.57;96672.59;4997858;28;20479;-91
2021/06/04 01:51:50;;;;;;;5.00;4.50;;;;;;;18.02;82.75;96670.84;4999146;28;20520;-91
2021/06/04 01:54:20;;;;;;;6.60;4.10;;;;;;;18.08;82.66;96670.53;4998189;28;21002;-92
2021/06/04 01:56:52;;;;;;;7.10;4.97;;;;;;;18.09;82.58;96669.22;4998021;28;20524;-91
2021/06/04 01:59:22;;;;;;;5.37;4.87;;;;;;;18.09;82.24;96674.69;4998289;28;20448;-91
2021/06/04 02:01:51;;;;;;;5.90;5.07;;;;;;;18.06;83.88;96668.38;4998060;28;20878;-92
2021/06/04 02:04:20;;;;;;;6.10;5.50;;;;;;;17.99;85.64;96666.56;4997263;28;20461;-91
2021/06/04 02:06:47;;;;;;;6.00;5.40;;;;;;;17.99;85.62;96668.56;5001336;28;20547;-91
2021/06/04 02:09:16;;;;;;;6.33;5.40;;;;;;;17.98;85.98;96662.38;5002121;28;20953;-90
2021/06/04 02:11:43;;;;;;;6.50;5.80;;;;;;;17.96;86.26;96664.97;5001920;28;20524;-92
2021/06/04 02:14:14;;;;;;;6.10;5.50;;;;;;;17.96;86.39;96669.72;5001446;28;20491;-92
2021/06/04 02:16:59;;;;;;;7.33;6.43;;;;;;;17.92;87.21;96666.72;5002322;28;20949;-92
2021/06/04 02:19:37;;;;;;;7.53;5.60;;;;;;;17.85;87.30;96664.91;5002687;28;20466;-91
2021/06/04 02:22:09;;;;;;;8.13;6.70;;;;;;;17.78;89.43;96665.78;5001509;28;20439;-91
2021/06/04 02:24:42;;;;;;;8.83;7.00;;;;;;;17.72;90.61;96665.38;5001401;28;20524;-90
2021/06/04 02:27:12;;;;;;;8.47;7.57;;;;;;;17.67;91.07;96673.28;5001997;28;20472;-91
2021/06/04 02:29:46;;;;;;;10.03;8.93;;;;;;;17.70;91.66;96676.19;5001612;28;20465;-91
2021/06/04 02:32:19;;;;;;;9.20;8.37;;;;;;;17.61;92.88;96670.16;5001729;28;20432;-91
2021/06/04 02:34:49;;;;;;;13.07;9.47;;;;;;;17.58;93.56;96676.06;5001465;28;20489;-92
2021/06/04 02:37:22;;;;;;;8.67;7.77;;;;;;;17.51;94.01;96674.19;5001690;28;20444;-92
2021/06/04 02:39:51;;;;;;;9.80;7.47;;;;;;;17.48;94.92;96673.31;5001686;28;20798;-92
2021/06/04 02:42:22;;;;;;;8.67;7.77;;;;;;;17.49;95.14;96674.78;5002673;28;20872;-92
2021/06/04 02:44:54;;;;;;;9.20;7.90;;;;;;;17.45;95.06;96666.31;5004800;28;20509;-92
2021/06/04 02:47:25;;;;;;;8.47;7.40;;;;;;;17.36;95.21;96663.59;5001791;28;20459;-92
2021/06/04 02:49:51;;;;;;;8.40;6.27;;;;;;;17.30;95.24;96660.44;5001943;28;20437;-92
2021/06/04 02:52:31;;;;;;;8.80;7.70;;;;;;;17.32;95.18;96658.56;5001973;28;20820;-93
2021/06/04 02:54:59;;;;;;;9.17;7.80;;;;;;;17.30;95.86;96663.91;5002343;28;20926;-92
2021/06/04 02:57:29;;;;;;;10.60;8.73;;;;;;;17.31;95.87;96657.16;5001033;28;20512;-91
2021/06/04 02:59:57;;;;;;;10.90;9.80;;;;;;;17.28;96.12;96657.59;5002179;28;20409;-93
2021/06/04 03:02:26;;;;;;;13.43;11.03;;;;;;;17.25;96.42;96658.75;5002919;28;20429;-92
2021/06/04 03:04:57;;;;;;;12.57;9.13;;;;;;;17.18;96.82;96663.06;5003502;28;21061;-90
2021/06/04 03:07:27;;;;;;;11.53;10.27;;;;;;;17.11;97.09;96659.22;5002905;28;20461;-93
2021/06/04 03:09:55;;;;;;;10.13;9.00;;;;;;;17.07;97.36;96664.38;5003434;28;20783;-91
2021/06/04 03:12:26;;;;;;;10.37;9.30;;;;;;;17.00;98.24;96661.81;5002648;28;20611;-92
2021/06/04 03:14:54;;;;;;;12.90;9.57;;;;;;;17.01;98.46;96661.22;5002808;28;20493;-92
2021/06/04 03:17:24;;;;;;;11.87;10.60;;;;;;;16.98;98.28;96661.66;5000594;28;20481;-91
2021/06/04 03:19:50;;;;;;;12.87;11.13;;;;;;;16.97;98.98;96663.69;5002348;28;20492;-92
2021/06/04 03:22:25;;;;;;;12.43;10.30;;;;;;;16.96;99.12;96664.25;5002731;28;20430;-92
2021/06/04 03:24:51;;;;;;;12.10;11.00;;;;;;;16.97;99.31;96671.88;5002091;28;20503;-91
2021/06/04 03:27:20;;;;;;;14.77;10.27;;;;;;;16.97;99.89;96666.41;5001947;28;20457;-91
2021/06/04 03:29:46;;;;;;;15.50;10.93;;;;;;;16.98;100.00;96662.38;5002975;28;20536;-91
2021/06/04 03:32:15;;;;;;;11.57;10.33;;;;;;;16.95;100.00;96663.53;5007102;28;20866;-91
2021/06/04 03:34:46;;;;;;;12.03;10.60;;;;;;;16.94;100.00;96662.13;5001731;28;20924;-91
2021/06/04 03:37:14;;;;;;;14.83;9.70;;;;;;;17.00;100.00;96662.53;5002201;28;20420;-91
2021/06/04 03:39:42;;;;;;;10.73;9.70;;;;;;;17.03;100.00;96669.56;5010307;28;20475;-91
2021/06/04 03:42:13;;;;;;;13.47;9.83;;;;;;;17.05;100.00;96666.97;5002880;28;20496;-91
2021/06/04 03:44:42;;;;;;;12.70;9.63;;;;;;;17.09;100.00;96672.72;5002482;28;20537;-92
2021/06/04 03:47:09;;;;;;;10.00;9.03;;;;;;;17.12;100.00;96679.00;5002267;28;20490;-92
2021/06/04 03:49:35;;;;;;;14.37;9.50;;;;;;;17.22;100.00;96684.47;5005015;28;20453;-92
2021/06/04 03:52:06;;;;;;;10.93;9.07;;;;;;;17.27;100.00;96680.72;5004599;28;20493;-92
2021/06/04 03:54:35;;;;;;;11.67;8.80;;;;;;;17.35;100.00;96681.28;5020156;28;20491;-92
2021/06/04 03:57:04;;;;;;;11.60;9.37;;;;;;;17.39;99.84;96676.09;5020490;28;20457;-93
2021/06/04 03:59:30;;;;;;;11.77;9.03;;;;;;;17.48;99.85;96681.50;5020468;28;20413;-93
2021/06/04 04:02:00;;;;;;;9.70;8.70;;;;;;;17.62;99.62;96679.78;5020308;28;20428;-94
2021/06/04 04:04:27;;;;;;;10.90;8.70;;;;;;;17.89;98.71;96687.72;5020333;28;20426;-95
2021/06/04 04:06:53;;;;;;;10.70;9.67;;;;;;;18.06;97.56;96679.31;5020327;28;20430;-95
2021/06/04 04:09:21;;;;;;;11.80;9.20;;;;;;;18.34;96.62;96696.13;5018454;28;20492;-91
2021/06/04 04:11:51;;;;;;;9.27;8.40;;;;;;;18.80;94.22;96682.00;5002871;28;20460;-90
2021/06/04 04:14:18;;;;;;;14.30;8.53;;;;;;;19.25;92.73;96686.94;5004819;28;20495;-92
2021/06/04 04:16:44;;;;;;;15.13;9.20;;;;;;;19.65;88.85;96679.78;5003243;28;20484;-93
2021/06/04 04:19:11;;;;;;;8.90;7.83;;;;;;;20.04;86.73;96688.25;5003952;28;20433;-92
2021/06/04 04:21:39;;;;;;;8.57;7.70;;;;;;;20.38;85.07;96684.78;5019772;28;20433;-90
2021/06/04 04:24:10;;;;;;;13.80;8.40;;;;;;;20.72;83.99;96694.25;5019730;28;20484;-89
2021/06/04 04:26:40;;;;;;;8.20;6.70;;;;;;;21.14;81.88;96699.38;5019809;28;20456;-90
2021/06/04 04:29:06;;;;;;;7.50;6.80;;;;;;;21.48;80.23;96708.75;5018923;28;20500;-92
2021/06/04 04:31:37;;;;;;;9.87;5.93;;;;;;;21.85;78.63;96705.88;5008009;28;20995;-92
2021/06/04 04:34:05;;;;;;;11.73;6.40;;;;;;;22.13;76.71;96712.13;5004391;28;20561;-92
2021/06/04 04:36:34;;;;;;;8.47;6.27;;;;;;;21.91;76.96;96700.72;5004082;28;20449;-93
2021/06/04 04:39:00;;;;;;;8.57;6.20;;;;;;;21.67;78.09;96699.44;5003231;28;20522;-93
2021/06/04 04:41:27;;;;;;;11.70;6.23;;;;;;;21.69;78.54;96699.53;5002026;28;20867;-92
2021/06/04 04:43:56;;;;;;;6.43;5.83;;;;;;;21.66;78.36;96706.22;5001048;28;20469;-92
2021/06/04 04:46:26;;;;;;;9.80;7.17;;;;;;;21.52;78.91;96703.44;5002544;28;20477;-91
2021/06/04 04:48:52;;;;;;;9.33;6.33;;;;;;;21.28;80.04;96708.38;5000972;28;20453;-91
2021/06/04 04:51:20;;;;;;;13.80;8.17;;;;;;;21.09;81.04;96699.72;5001309;28;20476;-92
2021/06/04 04:53:47;;;;;;;8.13;7.33;;;;;;;20.86;81.46;96708.75;5002162;28;20517;-91
2021/06/04 04:56:14;;;;;;;7.90;7.10;;;;;;;20.81;81.75;96704.34;5000989;28;20492;-91
2021/06/04 04:58:40;;;;;;;9.97;7.70;;;;;;;20.67;82.27;96709.78;5000901;28;20441;-92
2021/06/04 05:01:09;;;;;;;7.23;6.63;;;;;;;20.66;82.75;96726.81;5001431;28;20449;-92
2021/06/04 05:03:36;;;;;;;8.20;7.23;;;;;;;20.69;82.64;96720.13;4999990;28;20476;-92
2021/06/04 05:06:03;;;;;;;12.53;7.63;;;;;;;20.63;83.64;96720.50;5001814;28;20496;-93
2021/06/04 05:08:29;;;;;;;8.83;8.00;;;;;;;20.45;84.69;96714.00;5002801;28;20531;-93
2021/06/04 05:10:56;;;;;;;8.37;7.60;;;;;;;20.50;85.17;96721.13;5001625;28;20532;-92
2021/06/04 05:13:23;;;;;;;9.63;8.07;;;;;;;20.37;85.99;96719.00;5001410;28;20539;-93
2021/06/04 05:15:50;;;;;;;9.33;8.40;;;;;;;20.43;85.91;96729.59;5002278;28;20488;-93
2021/06/04 05:18:18;;;;;;;11.00;8.70;;;;;;;20.52;85.54;96726.00;5003312;28;20452;-93
2021/06/04 05:20:46;;;;;;;10.23;7.03;;;;;;;20.65;85.23;96722.63;5003794;28;20429;-93
2021/06/04 05:23:14;;;;;;;7.97;7.17;;;;;;;20.59;85.42;96728.50;5001984;28;20480;-92
2021/06/04 05:25:42;;;;;;;12.67;7.93;;;;;;;20.71;85.04;96725.72;5004000;28;20449;-92
2021/06/04 05:28:10;;;;;;;7.57;6.83;;;;;;;20.75;84.69;96725.94;5002202;28;20889;-93
2021/06/04 05:30:39;;;;;;;9.10;7.50;;;;;;;20.75;84.90;96731.44;5002496;28;20460;-91
2021/06/04 05:33:06;;;;;;;9.10;7.33;;;;;;;20.77;84.81;96721.28;5000044;28;20457;-91
2021/06/04 05:35:34;;;;;;;9.27;7.27;;;;;;;20.80;83.56;96722.84;5000032;28;20609;-90
2021/06/04 05:38:00;;;;;;;7.87;6.53;;;;;;;20.83;83.62;96726.44;5000362;28;20449;-90
2021/06/04 05:40:29;;;;;;;8.63;6.50;;;;;;;20.91;83.76;96726.16;5002984;28;20485;-90
2021/06/04 05:42:57;;;;;;;9.27;8.10;;;;;;;20.90;83.81;96735.69;5004717;28;20531;-90
2021/06/04 05:45:26;;;;;;;9.00;6.40;;;;;;;20.88;84.58;96732.84;5004825;28;20623;-91
2021/06/04 05:47:52;;;;;;;9.70;6.43;;;;;;;21.05;83.94;96729.69;5004803;28;20468;-92
2021/06/04 05:50:26;;;;;;;11.53;6.77;;;;;;;21.23;82.62;96745.16;5003511;28;20453;-92
2021/06/04 05:52:54;;;;;;;5.90;5.40;;;;;;;21.40;81.81;96735.75;5004298;28;20969;-92
2021/06/04 05:55:25;;;;;;;10.83;5.87;;;;;;;21.61;81.24;96741.03;5004734;28;20495;-92
2021/06/04 05:57:51;;;;;;;11.40;6.13;;;;;;;22.26;78.69;96745.13;5005159;28;20416;-92
2021/06/04 06:00:22;;;;;;;6.70;5.40;;;;;;;23.44;73.02;96749.56;5005160;28;20531;-93
2021/06/04 06:02:49;;;;;;;4.90;4.40;;;;;;;24.33;69.03;96744.56;5006584;28;20472;-91
2021/06/04 06:05:16;;;;;;;4.93;4.53;;;;;;;25.33;65.69;96758.34;5005919;28;20547;-92
2021/06/04 06:07:42;;;;;;;5.27;3.60;;;;;;;26.47;60.87;96756.41;5017292;28;20510;-93
2021/06/04 06:10:11;;;;;;;4.87;4.33;;;;;;;26.95;57.94;96759.41;5011029;28;20480;-93
2021/06/04 06:12:37;;;;;;;5.33;3.67;;;;;;;27.36;56.87;96764.19;5007725;28;20833;-91
2021/06/04 06:15:06;;;;;;;5.97;4.23;;;;;;;27.52;56.93;96776.53;5004440;28;20576;-92
2021/06/04 06:17:32;;;;;;;5.00;4.00;;;;;;;27.70;56.36;96773.59;5005330;28;20528;-92
2021/06/04 06:19:58;;;;;;;3.87;3.17;;;;;;;28.36;53.51;96771.34;5005265;28;20441;-93
2021/06/04 06:22:25;;;;;;;4.60;3.10;;;;;;;28.67;50.89;96779.88;5004552;28;20457;-91
2021/06/04 06:24:51;;;;;;;4.00;3.00;;;;;;;28.24;51.73;96782.81;5004125;28;20516;-92
2021/06/04 06:27:19;;;;;;;5.50;3.53;;;;;;;28.95;50.70;96779.16;5005898;28;20929;-92
2021/06/04 06:29:45;;;;;;;7.20;3.07;;;;;;;29.58;48.35;96773.78;5007963;28;20429;-93
2021/06/04 06:32:12;;;;;;;4.13;3.40;;;;;;;29.49;49.31;96774.97;5008993;28;20473;-93
2021/06/04 06:34:39;;;;;;;4.70;3.20;;;;;;;30.10;47.81;96784.66;5008022;28;20828;-92
2021/06/04 06:37:06;;;;;;;3.83;3.33;;;;;;;30.25;48.49;96781.50;5012170;28;20454;-92
2021/06/04 06:39:33;;;;;;;4.77;3.63;;;;;;;29.98;48.20;96793.44;5010334;28;20444;-90
2021/06/04 06:42:03;;;;;;;4.60;2.70;;;;;;;29.95;48.00;96794.78;5008664;28;20505;-91
2021/06/04 06:44:32;;;;;;;6.17;3.10;;;;;;;29.33;49.52;96791.28;5008400;28;20457;-91
2021/06/04 06:46:58;;;;;;;3.57;2.80;;;;;;;28.65;50.21;96793.72;5010128;28;20507;-92
2021/06/04 06:49:25;;;;;;;3.90;3.07;;;;;;;28.10;51.30;96790.75;5006991;28;20516;-91
2021/06/04 06:51:52;;;;;;;4.77;3.50;;;;;;;27.51;53.36;96791.75;5007849;28;20509;-92
2021/06/04 06:54:21;;;;;;;5.60;3.07;;;;;;;27.16;54.66;96789.19;5019808;28;20449;-91
2021/06/04 06:56:51;;;;;;;4.40;4.00;;;;;;;26.44;58.03;96787.41;5020883;28;20896;-92
2021/06/04 06:59:18;;;;;;;4.23;3.93;;;;;;;26.69;58.10;96794.53;5019949;28;20515;-93
2021/06/04 07:01:46;;;;;;;6.00;4.67;;;;;;;26.12;58.82;96789.03;5017608;28;20476;-91
2021/06/04 07:04:12;;;;;;;5.67;4.57;;;;;;;25.52;60.92;96788.88;5007704;28;20473;-92
2021/06/04 07:06:40;;;;;;;4.00;3.50;;;;;;;25.63;58.78;96786.47;5009274;28;20512;-93
2021/06/04 07:09:09;;;;;;;7.10;4.23;;;;;;;25.38;60.90;96788.28;5005996;28;20524;-92
2021/06/04 07:11:37;;;;;;;7.93;6.00;;;;;;;25.22;61.58;96784.88;5005529;28;20480;-91
2021/06/04 07:14:04;;;;;;;5.33;3.90;;;;;;;25.23;61.63;96788.34;5005035;28;20519;-91
2021/06/04 07:16:31;;;;;;;5.10;4.10;;;;;;;24.90;60.55;96791.84;5007223;28;20595;-92
2021/06/04 07:18:59;;;;;;;7.20;3.47;;;;;;;24.85;62.35;96796.50;5013349;28;20449;-93
2021/06/04 07:21:27;;;;;;;6.47;4.80;;;;;;;24.85;64.62;96798.53;5009226;28;20934;-93
2021/06/04 07:23:54;;;;;;;9.97;5.33;;;;;;;24.73;65.53;96798.72;5006553;28;20528;-91
2021/06/04 07:26:21;;;;;;;7.20;5.23;;;;;;;24.74;64.37;96797.41;5006697;28;20517;-92
2021/06/04 07:28:49;;;;;;;7.33;5.27;;;;;;;24.81;65.25;96806.66;5007937;28;20437;-91
2021/06/04 07:31:17;;;;;;;10.97;5.40;;;;;;;24.88;64.66;96809.03;5007027;28;20433;-91
2021/06/04 07:33:47;;;;;;;4.93;4.50;;;;;;;24.99;64.21;96808.13;5007924;28;20469;-92
2021/06/04 07:36:18;;;;;;;9.40;4.97;;;;;;;25.33;63.41;96811.56;5008869;28;20481;-91
2021/06/04 07:38:44;;;;;;;8.93;4.80;;;;;;;25.87;62.19;96804.72;5008070;28;20445;-91
2021/06/04 07:41:12;;;;;;;7.57;4.97;;;;;;;25.89;61.40;96809.59;5007994;28;20533;-91
2021/06/04 07:43:40;;;;;;;5.80;5.20;;;;;;;26.33;61.01;96814.06;5007867;28;20475;-92
2021/06/04 07:46:08;;;;;;;7.53;5.10;;;;;;;26.80;59.18;96818.44;5007222;28;20484;-93
2021/06/04 07:48:35;;;;;;;5.80;4.90;;;;;;;27.49;58.50;96816.66;5007138;28;20509;-91
2021/06/04 07:51:03;;;;;;;8.30;4.90;;;;;;;28.05;56.46;96817.69;5004491;28;20917;-91
2021/06/04 07:53:33;;;;;;;6.90;6.20;;;;;;;28.44;55.50;96822.28;5008653;28;20473;-93
2021/06/04 07:56:01;;;;;;;7.40;5.87;;;;;;;28.73;54.73;96818.22;5010227;28;20492;-92
2021/06/04 07:58:27;;;;;;;7.33;5.70;;;;;;;28.66;54.94;96814.56;5008979;28;20479;-93
2021/06/04 08:00:54;;;;;;;5.97;5.37;;;;;;;28.95;54.38;96816.00;5010102;28;20499;-92
2021/06/04 08:03:25;;;;;;;7.93;4.50;;;;;;;29.21;54.48;96821.53;5006517;28;20517;-93
2021/06/04 08:05:53;;;;;;;6.53;5.30;;;;;;;29.14;53.33;96811.63;5003422;28;20477;-91
2021/06/04 08:08:21;;;;;;;9.43;5.17;;;;;;;29.08;53.72;96808.69;5004540;28;20445;-92
2021/06/04 08:10:49;;;;;;;7.00;4.60;;;;;;;29.14;53.05;96808.84;5010732;28;20457;-93
2021/06/04 08:13:18;;;;;;;5.00;4.60;;;;;;;29.38;51.96;96808.78;5012903;28;20453;-92
2021/06/04 08:15:49;;;;;;;6.80;4.90;;;;;;;29.25;51.73;96816.13;5011414;28;20477;-93
2021/06/04 08:18:18;;;;;;;6.63;5.93;;;;;;;29.71;51.20;96805.38;5013572;28;20425;-92
2021/06/04 08:20:46;;;;;;;4.50;4.10;;;;;;;29.15;51.02;96810.97;5011913;28;20453;-91
2021/06/04 08:23:16;;;;;;;5.23;3.90;;;;;;;29.55;51.11;96816.84;5004566;28;20459;-91
2021/06/04 08:25:46;;;;;;;8.43;3.93;;;;;;;29.52;50.36;96814.66;5004585;28;20599;-93
2021/06/04 08:28:17;;;;;;;6.43;4.10;;;;;;;29.51;50.04;96813.25;5005913;28;20554;-92
2021/06/04 08:30:45;;;;;;;4.23;3.83;;;;;;;29.51;48.56;96818.81;5006110;28;20972;-93
2021/06/04 08:33:11;;;;;;;4.13;2.83;;;;;;;29.58;46.68;96809.22;5007628;28;20452;-93
2021/06/04 08:35:38;;;;;;;5.80;3.13;;;;;;;29.11;48.13;96815.72;5008066;28;20492;-93
2021/06/04 08:38:05;;;;;;;4.63;3.10;;;;;;;29.00;49.39;96822.41;5010606;28;20499;-94
2021/06/04 08:40:35;;;;;;;4.50;3.10;;;;;;;29.37;48.20;96824.75;5009589;28;20448;-93
2021/06/04 08:43:23;;;;;;;5.53;3.47;;;;;;;28.89;48.84;96820.72;5007776;28;20485;-93
2021/06/04 08:46:00;;;;;;;3.23;2.60;;;;;;;29.03;48.06;96819.03;5009714;28;20475;-93
2021/06/04 08:48:39;;;;;;;4.17;3.77;;;;;;;29.06;48.97;96820.50;5010807;28;20500;-92
2021/06/04 08:51:15;;;;;;;26.30;7.93;;;;;;;29.25;46.66;96818.91;5006307;28;20425;-91
2021/06/04 08:53:54;;;;;;;8.07;2.80;;;;;;;29.18;46.61;96808.94;5003530;28;20890;-91
2021/06/04 08:56:26;;;;;;;3.10;2.10;;;;;;;28.85;45.77;96812.28;5006697;28;20487;-93
2021/06/04 08:58:59;;;;;;;2.53;2.33;;;;;;;28.68;45.90;96813.91;5005307;28;20461;-93
2021/06/04 09:01:32;;;;;;;3.50;2.80;;;;;;;28.55;46.95;96807.31;5011510;28;20425;-93
2021/06/04 09:04:03;;;;;;;5.70;3.10;;;;;;;28.75;46.31;96821.06;5004842;28;20469;-91
2021/06/04 09:06:37;;;;;;;5.10;2.87;;;;;;;28.43;46.79;96812.53;5004962;28;20453;-93
2021/06/04 09:09:10;;;;;;;5.17;2.50;;;;;;;28.77;46.66;96821.09;5004539;28;20428;-92
2021/06/04 09:11:39;;;;;;;5.83;3.63;;;;;;;28.74;49.04;96808.53;5004656;28;20426;-92
2021/06/04 09:14:08;;;;;;;7.23;4.10;;;;;;;28.03;52.25;96809.28;5003017;28;20906;-92
2021/06/04 09:16:45;;;;;;;7.67;5.10;;;;;;;27.24;54.83;96797.78;5005003;28;20492;-92
2021/06/04 09:19:21;;;;;;;13.90;4.30;;;;;;;27.33;54.06;96799.47;5009446;28;20398;-91
2021/06/04 09:21:47;;;;;;;6.57;4.30;;;;;;;27.20;54.67;96796.94;5007119;28;20433;-92
2021/06/04 09:24:25;;;;;;;8.63;4.57;;;;;;;26.72;56.42;96796.03;5004081;28;20450;-92
2021/06/04 09:26:51;;;;;;;6.07;5.47;;;;;;;26.42;57.49;96793.63;5003770;28;20409;-91
2021/06/04 09:29:23;;;;;;;7.03;5.67;;;;;;;26.21;57.17;96794.25;5003921;28;20469;-91
2021/06/04 09:31:51;;;;;;;8.40;4.90;;;;;;;26.16;57.45;96792.66;5006348;28;20509;-93
2021/06/04 09:34:29;;;;;;;5.07;4.57;;;;;;;26.32;57.02;96784.94;5004840;28;20476;-92
2021/06/04 09:36:57;;;;;;;4.60;3.90;;;;;;;26.59;56.46;96784.50;5004805;28;20465;-93
2021/06/04 09:39:29;;;;;;;5.70;4.13;;;;;;;26.75;55.75;96783.66;5005940;28;20477;-92
2021/06/04 09:42:22;;;;;;;5.20;3.90;;;;;;;26.83;55.99;96776.34;5006056;28;20437;-92
2021/06/04 09:45:00;;;;;;;5.87;4.73;;;;;;;26.49;57.34;96764.78;5011226;28;20572;-92
2021/06/04 09:47:36;;;;;;;4.80;4.30;;;;;;;26.54;57.33;96774.66;5014545;28;20456;-92
2021/06/04 09:50:23;;;;;;;5.40;4.30;;;;;;;26.42;56.71;96771.47;5016043;28;20409;-93
2021/06/04 09:53:02;;;;;;;8.80;5.17;;;;;;;26.18;58.66;96761.59;5016895;28;20422;-93
2021/06/04 09:55:31;;;;;;;8.30;5.03;;;;;;;26.25;57.96;96763.94;5009356;28;20982;-92
2021/06/04 09:58:02;;;;;;;8.73;5.73;;;;;;;26.31;58.64;96761.41;5003448;28;20491;-90
2021/06/04 10:00:32;;;;;;;6.70;4.50;;;;;;;26.36;56.52;96765.72;5002704;28;20503;-92
2021/06/04 10:03:08;;;;;;;8.70;4.80;;;;;;;25.82;57.49;96760.94;5003930;28;20441;-92
2021/06/04 10:05:35;;;;;;;7.47;4.70;;;;;;;25.77;57.59;96757.31;5005626;28;20527;-92
2021/06/04 10:08:04;;;;;;;5.13;4.43;;;;;;;25.63;58.98;96764.34;5005106;28;20461;-93
2021/06/04 10:10:35;;;;;;;7.30;5.33;;;;;;;25.63;58.70;96764.34;5005046;28;20536;-92
2021/06/04 10:13:04;;;;;;;7.60;5.13;;;;;;;25.60;58.42;96768.38;5003173;28;20519;-90
2021/06/04 10:15:41;;;;;;;8.47;5.10;;;;;;;25.83;58.99;96765.13;5001495;28;20508;-92
2021/06/04 10:18:24;;;;;;;7.70;5.57;;;;;;;26.08;58.45;96770.94;5002556;28;20456;-91
2021/06/04 10:20:52;;;;;;;7.93;6.10;;;;;;;26.14;57.77;96762.13;5003840;28;20469;-92
2021/06/04 10:23:23;;;;;;;7.20;4.20;;;;;;;25.74;59.93;96764.13;5003753;28;20445;-92
2021/06/04 10:25:53;;;;;;;7.87;4.83;;;;;;;25.59;59.60;96767.00;5002615;28;20496;-92
2021/06/04 10:28:36;;;;;;;6.83;5.20;;;;;;;25.47;60.73;96765.13;5020697;28;20460;-94
2021/06/04 10:31:10;;;;;;;5.50;4.53;;;;;;;25.34;61.52;96773.59;5019621;28;20503;-91
2021/06/04 10:33:43;;;;;;;6.60;4.80;;;;;;;25.37;61.92;96769.56;5017427;28;20445;-92
2021/06/04 10:36:15;;;;;;;6.20;4.60;;;;;;;25.47;61.17;96765.13;5019686;28;20500;-93
2021/06/04 10:38:46;;;;;;;11.53;4.87;;;;;;;25.75;60.17;96768.28;5020254;28;20511;-92
2021/06/04 10:41:15;;;;;;;5.30;4.80;;;;;;;25.45;61.19;96761.59;5018963;28;20436;-91
2021/06/04 10:43:54;;;;;;;8.43;5.00;;;;;;;25.28;61.92;96760.25;5019515;28;20441;-91
2021/06/04 10:46:31;;;;;;;6.80;4.80;;;;;;;25.15;63.04;96763.88;5012452;28;20559;-92
2021/06/04 10:49:07;;;;;;;7.53;4.83;;;;;;;25.22;65.81;96797.97;5012191;28;20445;-92
2021/06/04 10:51:43;;;;;;;7.97;4.77;;;;;;;24.77;63.53;96795.41;5009612;28;20548;-92
2021/06/04 10:54:19;;;;;;;4.17;3.53;;;;;;;23.21;68.07;96776.66;5014511;28;20591;-94
2021/06/04 10:57:00;;;;;;;10.90;6.30;;;;;;;22.47;75.37;96757.16;5019300;28;20471;-91
2021/06/04 10:59:36;;;;;;;15.10;5.90;;;;;;;22.16;73.35;96749.41;5019572;28;20858;-93
2021/06/04 11:02:16;;;;;;;15.63;5.87;;;;;;;21.45;79.61;96742.91;5019020;28;20491;-92
2021/06/04 11:04:53;;;;;;;11.63;5.30;;;;;;;21.36;77.94;96752.03;5019555;28;20453;-92
2021/06/04 11:07:25;;;;;;;11.60;5.93;;;;;;;21.25;83.07;96741.78;5007198;28;20475;-91
2021/06/04 11:09:59;;;;;;;11.30;6.20;;;;;;;21.31;86.17;96742.13;5003422;28;20852;-92
2021/06/04 11:12:47;;;;;;;9.13;6.10;;;;;;;21.05;89.38;96729.69;5005820;28;21010;-93
2021/06/04 11:15:17;;;;;;;11.33;5.77;;;;;;;21.13;82.03;96730.88;5005097;28;20496;-92
2021/06/04 11:17:48;;;;;;;13.07;5.50;;;;;;;21.29;83.39;96720.78;5002517;28;20431;-93
2021/06/04 11:20:18;;;;;;;10.40;6.23;;;;;;;21.51;90.34;96737.03;5004021;28;20508;-92
2021/06/04 11:22:56;;;;;;;8.07;6.20;;;;;;;21.42;91.29;96732.41;5006374;28;20453;-92
2021/06/04 11:25:38;;;;;;;11.40;6.77;;;;;;;21.44;90.26;96732.50;5006120;28;20599;-94
2021/06/04 11:28:21;;;;;;;12.83;6.50;;;;;;;21.49;93.06;96726.63;5003409;28;20425;-91
2021/06/04 11:30:53;;;;;;;11.90;6.20;;;;;;;21.68;90.66;96726.28;5004069;28;20433;-90
2021/06/04 11:33:23;;;;;;;10.13;6.60;;;;;;;21.88;91.42;96721.13;5003747;28;20468;-91
2021/06/04 11:35:53;;;;;;;12.60;6.80;;;;;;;22.07;94.28;96723.53;5009615;28;20543;-92
2021/06/04 11:38:27;;;;;;;7.83;4.90;;;;;;;21.86;78.69;96732.03;5003305;28;20492;-91
2021/06/04 11:40:59;;;;;;;7.53;5.13;;;;;;;22.09;82.46;96720.88;5004322;28;20426;-92
2021/06/04 11:43:30;;;;;;;14.63;7.70;;;;;;;22.16;93.35;96722.63;5009324;28;20442;-91
2021/06/04 11:46:18;;;;;;;7.73;6.00;;;;;;;21.66;82.97;96711.72;5010903;28;20472;-93